Schreiber, Canada
Current Conditions -  °F | °C
As of 9:00 AM on Monday 26 Jan 2015 (Local Time) from CYGQ Reporting Station
Broken Clouds Broken Clouds  
Wind Chill: -13°   Ceiling: 8000
Heat Index:   Visibility: 15mi
Dew Point: -2°   Wind: 7mph
Humidity: 92%   Direction: 100°E
Pressure: 29.78"   Gusts: NA
Location:  48.8°N, 87.27°W
Report Text: CYGQ 261400Z 10006KT 15SM SCT025 BKN080 M18/M19 A2978 RMK SC3AC3 SLP125
Loading
Personal Weather Stations






























Interactive Weather Map New forecast layout! Learn more

10-Day Weather Forecast

Advertisements
Track Severe Weather on mobile